sensor_id;sensor_type;location;lat;lon;timestamp;pressure;altitude;pressure_sealevel;temperature;humidity
71059;BME280;70265;47.576;19.270;2023-07-29T00:00:54;98439.16;;;18.43;100.00
71059;BME280;70265;47.576;19.270;2023-07-29T00:01:58;98434.44;;;18.45;100.00
71059;BME280;70265;47.576;19.270;2023-07-29T00:03:03;98433.44;;;18.40;100.00
71059;BME280;70265;47.576;19.270;2023-07-29T00:04:04;98432.84;;;18.38;100.00
71059;BME280;70265;47.576;19.270;2023-07-29T00:05:10;98435.28;;;18.39;100.00
71059;BME280;70265;47.576;19.270;2023-07-29T00:06:11;98441.66;;;18.31;100.00
71059;BME280;70265;47.576;19.270;2023-07-29T00:07:15;98435.75;;;18.29;100.00
71059;BME280;70265;47.576;19.270;2023-07-29T00:08:16;98434.13;;;18.28;100.00
71059;BME280;70265;47.576;19.270;2023-07-29T00:09:23;98435.75;;;18.29;100.00
71059;BME280;70265;47.576;19.270;2023-07-29T00:10:24;98434.13;;;18.28;100.00
71059;BME280;70265;47.576;19.270;2023-07-29T00:11:28;98447.81;;;18.25;100.00
71059;BME280;70265;47.576;19.270;2023-07-29T00:12:32;98438.69;;;18.15;100.00
71059;BME280;70265;47.576;19.270;2023-07-29T00:13:36;98449.50;;;18.13;100.00
71059;BME280;70265;47.576;19.270;2023-07-29T00:14:37;98444.56;;;18.17;100.00
71059;BME280;70265;47.576;19.270;2023-07-29T00:15:44;98441.53;;;18.20;100.00
71059;BME280;70265;47.576;19.270;2023-07-29T00:16:47;98448.25;;;18.22;100.00
71059;BME280;70265;47.576;19.270;2023-07-29T00:17:51;98440.88;;;18.24;100.00
71059;BME280;70265;47.576;19.270;2023-07-29T00:18:53;98446.22;;;18.18;100.00
71059;BME280;70265;47.576;19.270;2023-07-29T00:19:59;98443.69;;;17.85;100.00
71059;BME280;70265;47.576;19.270;2023-07-29T00:21:01;98437.78;;;17.76;100.00
71059;BME280;70265;47.576;19.270;2023-07-29T00:22:05;98441.88;;;17.72;100.00
71059;BME280;70265;47.576;19.270;2023-07-29T00:23:06;98432.09;;;17.66;100.00
71059;BME280;70265;47.576;19.270;2023-07-29T00:24:10;98435.38;;;17.68;100.00
71059;BME280;70265;47.576;19.270;2023-07-29T00:25:11;98434.94;;;17.71;100.00
71059;BME280;70265;47.576;19.270;2023-07-29T00:26:16;98434.31;;;17.76;100.00
71059;BME280;70265;47.576;19.270;2023-07-29T00:27:17;98433.72;;;17.74;100.00
71059;BME280;70265;47.576;19.270;2023-07-29T00:28:21;98433.91;;;17.79;100.00
71059;BME280;70265;47.576;19.270;2023-07-29T00:29:22;98434.13;;;17.77;100.00
71059;BME280;70265;47.576;19.270;2023-07-29T00:30:30;98433.53;;;17.75;100.00
71059;BME280;70265;47.576;19.270;2023-07-29T00:31:31;98441.50;;;17.69;100.00
71059;BME280;70265;47.576;19.270;2023-07-29T00:32:38;98432.91;;;17.67;100.00
71059;BME280;70265;47.576;19.270;2023-07-29T00:33:39;98438.44;;;17.65;100.00
71059;BME280;70265;47.576;19.270;2023-07-29T00:34:43;98431.09;;;17.67;100.00
71059;BME280;70265;47.576;19.270;2023-07-29T00:35:45;98430.69;;;17.64;100.00
71059;BME280;70265;47.576;19.270;2023-07-29T00:36:52;98435.56;;;17.67;100.00
71059;BME280;70265;47.576;19.270;2023-07-29T00:37:53;98431.91;;;17.68;100.00
71059;BME280;70265;47.576;19.270;2023-07-29T00:39:01;98432.91;;;17.67;100.00
71059;BME280;70265;47.576;19.270;2023-07-29T00:40:19;98426.78;;;17.66;100.00
71059;BME280;70265;47.576;19.270;2023-07-29T00:41:23;98428.44;;;17.67;100.00
71059;BME280;70265;47.576;19.270;2023-07-29T00:42:26;98424.75;;;17.68;100.00
71059;BME280;70265;47.576;19.270;2023-07-29T00:43:30;98425.38;;;17.64;100.00
71059;BME280;70265;47.576;19.270;2023-07-29T00:44:31;98428.63;;;17.66;100.00
71059;BME280;70265;47.576;19.270;2023-07-29T00:45:36;98429.47;;;17.60;100.00
71059;BME280;70265;47.576;19.270;2023-07-29T00:46:38;98423.97;;;17.61;100.00
71059;BME280;70265;47.576;19.270;2023-07-29T00:47:47;98431.72;;;17.56;100.00
71059;BME280;70265;47.576;19.270;2023-07-29T00:48:49;98432.34;;;17.58;100.00
71059;BME280;70265;47.576;19.270;2023-07-29T00:49:53;98433.94;;;17.59;100.00
71059;BME280;70265;47.576;19.270;2023-07-29T00:50:55;98435.16;;;17.63;100.00
71059;BME280;70265;47.576;19.270;2023-07-29T00:51:59;98428.44;;;17.61;100.00
71059;BME280;70265;47.576;19.270;2023-07-29T00:53:02;98427.63;;;17.60;100.00
71059;BME280;70265;47.576;19.270;2023-07-29T00:54:14;98428.03;;;17.57;100.00
71059;BME280;70265;47.576;19.270;2023-07-29T00:55:16;98434.38;;;17.56;100.00
71059;BME280;70265;47.576;19.270;2023-07-29T00:56:20;98427.81;;;17.52;100.00
71059;BME280;70265;47.576;19.270;2023-07-29T00:57:22;98434.97;;;17.52;100.00
71059;BME280;70265;47.576;19.270;2023-07-29T00:58:27;98430.25;;;17.54;100.00
71059;BME280;70265;47.576;19.270;2023-07-29T00:59:28;98436.19;;;17.49;100.00
71059;BME280;70265;47.576;19.270;2023-07-29T01:00:32;98424.75;;;17.42;100.00
71059;BME280;70265;47.576;19.270;2023-07-29T01:01:34;98432.53;;;17.37;100.00
71059;BME280;70265;47.576;19.270;2023-07-29T01:02:38;98425.41;;;17.38;100.00
71059;BME280;70265;47.576;19.270;2023-07-29T01:03:42;98430.31;;;17.34;100.00
71059;BME280;70265;47.576;19.270;2023-07-29T01:04:46;98426.84;;;17.27;100.00
71059;BME280;70265;47.576;19.270;2023-07-29T01:06:05;98431.53;;;17.32;100.00
71059;BME280;70265;47.576;19.270;2023-07-29T01:07:16;98435.59;;;17.34;100.00
71059;BME280;70265;47.576;19.270;2023-07-29T01:08:28;98434.19;;;17.32;100.00
71059;BME280;70265;47.576;19.270;2023-07-29T01:09:43;98432.31;;;17.32;100.00
71059;BME280;70265;47.576;19.270;2023-07-29T01:10:58;98430.72;;;17.31;100.00
71059;BME280;70265;47.576;19.270;2023-07-29T01:12:11;98437.84;;;17.30;100.00
71059;BME280;70265;47.576;19.270;2023-07-29T01:13:18;98433.56;;;17.29;100.00
71059;BME280;70265;47.576;19.270;2023-07-29T01:14:29;98426.22;;;17.18;100.00
71059;BME280;70265;47.576;19.270;2023-07-29T01:15:39;98435.41;;;17.16;100.00
71059;BME280;70265;47.576;19.270;2023-07-29T01:16:52;98437.44;;;17.20;100.00
71059;BME280;70265;47.576;19.270;2023-07-29T01:18:01;98438.28;;;17.21;100.00
71059;BME280;70265;47.576;19.270;2023-07-29T01:19:14;98430.13;;;17.03;100.00
71059;BME280;70265;47.576;19.270;2023-07-29T01:20:22;98435.81;;;17.13;100.00
71059;BME280;70265;47.576;19.270;2023-07-29T01:21:28;98434.19;;;17.12;100.00
71059;BME280;70265;47.576;19.270;2023-07-29T01:22:30;98434.00;;;17.13;100.00
71059;BME280;70265;47.576;19.270;2023-07-29T01:23:37;98432.56;;;17.11;100.00
71059;BME280;70265;47.576;19.270;2023-07-29T01:24:39;98434.81;;;17.14;100.00
71059;BME280;70265;47.576;19.270;2023-07-29T01:25:42;98426.03;;;17.13;100.00
71059;BME280;70265;47.576;19.270;2023-07-29T01:26:44;98428.47;;;17.08;100.00
71059;BME280;70265;47.576;19.270;2023-07-29T01:27:50;98429.69;;;17.06;100.00
71059;BME280;70265;47.576;19.270;2023-07-29T01:28:52;98428.88;;;17.05;100.00
71059;BME280;70265;47.576;19.270;2023-07-29T01:29:57;98426.03;;;17.00;100.00
71059;BME280;70265;47.576;19.270;2023-07-29T01:31:03;98428.88;;;16.99;100.00
71059;BME280;70265;47.576;19.270;2023-07-29T01:32:13;98426.03;;;17.00;100.00
71059;BME280;70265;47.576;19.270;2023-07-29T01:33:20;98424.59;;;16.98;100.00
71059;BME280;70265;47.576;19.270;2023-07-29T01:34:31;98428.47;;;17.02;100.00
71059;BME280;70265;47.576;19.270;2023-07-29T01:35:42;98426.66;;;17.02;100.00
71059;BME280;70265;47.576;19.270;2023-07-29T01:36:54;98416.88;;;16.90;100.00
71059;BME280;70265;47.576;19.270;2023-07-29T01:38:04;98426.03;;;16.94;100.00
71059;BME280;70265;47.576;19.270;2023-07-29T01:39:12;98421.94;;;16.98;100.00
71059;BME280;70265;47.576;19.270;2023-07-29T01:40:15;98416.25;;;16.94;100.00
71059;BME280;70265;47.576;19.270;2023-07-29T01:41:20;98414.81;;;16.92;100.00
71059;BME280;70265;47.576;19.270;2023-07-29T01:42:22;98411.75;;;16.88;100.00
71059;BME280;70265;47.576;19.270;2023-07-29T01:43:27;98419.50;;;16.90;100.00
71059;BME280;70265;47.576;19.270;2023-07-29T01:44:28;98422.34;;;16.88;100.00
71059;BME280;70265;47.576;19.270;2023-07-29T01:45:35;98416.88;;;16.90;100.00
71059;BME280;70265;47.576;19.270;2023-07-29T01:46:38;98419.09;;;16.93;100.00
71059;BME280;70265;47.576;19.270;2023-07-29T01:47:42;98422.16;;;16.96;100.00
71059;BME280;70265;47.576;19.270;2023-07-29T01:48:43;98423.81;;;16.97;100.00
71059;BME280;70265;47.576;19.270;2023-07-29T01:49:47;98418.69;;;16.96;100.00
71059;BME280;70265;47.576;19.270;2023-07-29T01:50:48;98420.53;;;16.95;100.00
71059;BME280;70265;47.576;19.270;2023-07-29T01:51:52;98413.00;;;16.92;100.00
71059;BME280;70265;47.576;19.270;2023-07-29T01:52:54;98414.22;;;16.90;100.00
71059;BME280;70265;47.576;19.270;2023-07-29T01:53:56;98417.47;;;16.92;100.00
71059;BME280;70265;47.576;19.270;2023-07-29T01:55:05;98415.44;;;16.94;100.00
71059;BME280;70265;47.576;19.270;2023-07-29T01:56:07;98426.84;;;16.88;100.00
71059;BME280;70265;47.576;19.270;2023-07-29T01:57:12;98415.63;;;16.86;100.00
71059;BME280;70265;47.576;19.270;2023-07-29T01:58:13;98411.97;;;16.87;100.00
71059;BME280;70265;47.576;19.270;2023-07-29T01:59:20;98416.03;;;16.83;100.00
71059;BME280;70265;47.576;19.270;2023-07-29T02:00:22;98419.50;;;16.76;100.00
71059;BME280;70265;47.576;19.270;2023-07-29T02:01:25;98415.41;;;16.67;100.00
71059;BME280;70265;47.576;19.270;2023-07-29T02:02:27;98418.06;;;16.67;100.00
71059;BME280;70265;47.576;19.270;2023-07-29T02:03:30;98408.47;;;16.53;100.00
71059;BME280;70265;47.576;19.270;2023-07-29T02:04:32;98416.41;;;16.53;100.00
71059;BME280;70265;47.576;19.270;2023-07-29T02:05:36;98416.63;;;16.58;100.00
71059;BME280;70265;47.576;19.270;2023-07-29T02:06:37;98416.63;;;16.58;100.00
71059;BME280;70265;47.576;19.270;2023-07-29T02:07:41;98413.75;;;16.53;100.00
71059;BME280;70265;47.576;19.270;2023-07-29T02:08:42;98416.03;;;16.56;100.00
71059;BME280;70265;47.576;19.270;2023-07-29T02:09:46;98420.28;;;16.57;100.00
71059;BME280;70265;47.576;19.270;2023-07-29T02:10:49;98417.03;;;16.55;100.00
71059;BME280;70265;47.576;19.270;2023-07-29T02:11:53;98419.22;;;16.52;100.00
71059;BME280;70265;47.576;19.270;2023-07-29T02:12:55;98421.06;;;16.51;100.00
71059;BME280;70265;47.576;19.270;2023-07-29T02:13:58;98418.22;;;16.53;100.00
71059;BME280;70265;47.576;19.270;2023-07-29T02:15:00;98418.41;;;16.51;100.00
71059;BME280;70265;47.576;19.270;2023-07-29T02:16:08;98419.69;;;16.55;100.00
71059;BME280;70265;47.576;19.270;2023-07-29T02:17:10;98429.25;;;16.56;100.00
71059;BME280;70265;47.576;19.270;2023-07-29T02:18:13;98421.47;;;16.55;100.00
71059;BME280;70265;47.576;19.270;2023-07-29T02:19:15;98421.31;;;16.56;100.00
71059;BME280;70265;47.576;19.270;2023-07-29T02:20:19;98417.81;;;16.49;100.00
71059;BME280;70265;47.576;19.270;2023-07-29T02:21:21;98421.66;;;16.47;100.00
71059;BME280;70265;47.576;19.270;2023-07-29T02:22:24;98423.50;;;16.40;100.00
71059;BME280;70265;47.576;19.270;2023-07-29T02:23:27;98420.22;;;16.38;100.00
71059;BME280;70265;47.576;19.270;2023-07-29T02:24:31;98417.78;;;16.36;100.00
71059;BME280;70265;47.576;19.270;2023-07-29T02:25:35;98423.09;;;16.36;100.00
71059;BME280;70265;47.576;19.270;2023-07-29T02:26:44;98413.91;;;16.39;100.00
71059;BME280;70265;47.576;19.270;2023-07-29T02:27:46;98412.09;;;16.39;100.00
71059;BME280;70265;47.576;19.270;2023-07-29T02:28:50;98415.56;;;16.40;100.00
71059;BME280;70265;47.576;19.270;2023-07-29T02:29:51;98414.09;;;16.37;100.00
71059;BME280;70265;47.576;19.270;2023-07-29T02:31:09;98418.00;;;16.41;100.00
71059;BME280;70265;47.576;19.270;2023-07-29T02:32:12;98415.56;;;16.40;100.00
71059;BME280;70265;47.576;19.270;2023-07-29T02:33:16;98425.50;;;16.38;100.00
71059;BME280;70265;47.576;19.270;2023-07-29T02:34:18;98421.03;;;16.38;100.00
71059;BME280;70265;47.576;19.270;2023-07-29T02:35:21;98427.16;;;16.45;100.00
71059;BME280;70265;47.576;19.270;2023-07-29T02:36:22;98423.88;;;16.43;100.00
71059;BME280;70265;47.576;19.270;2023-07-29T02:37:27;98427.16;;;16.45;100.00
71059;BME280;70265;47.576;19.270;2023-07-29T02:38:30;98432.25;;;16.47;100.00
71059;BME280;70265;47.576;19.270;2023-07-29T02:39:34;98425.94;;;16.48;100.00
71059;BME280;70265;47.576;19.270;2023-07-29T02:40:35;98432.03;;;16.42;100.00
71059;BME280;70265;47.576;19.270;2023-07-29T02:41:39;98429.59;;;16.40;100.00
71059;BME280;70265;47.576;19.270;2023-07-29T02:42:43;98424.09;;;16.35;100.00
71059;BME280;70265;47.576;19.270;2023-07-29T02:43:48;98423.09;;;16.36;100.00
71059;BME280;70265;47.576;19.270;2023-07-29T02:44:50;98423.84;;;16.30;100.00
71059;BME280;70265;47.576;19.270;2023-07-29T02:45:54;98421.81;;;16.19;100.00
71059;BME280;70265;47.576;19.270;2023-07-29T02:46:55;98426.31;;;16.25;100.00
71059;BME280;70265;47.576;19.270;2023-07-29T02:47:59;98420.19;;;16.24;100.00
71059;BME280;70265;47.576;19.270;2023-07-29T02:49:01;98420.19;;;16.24;100.00
71059;BME280;70265;47.576;19.270;2023-07-29T02:50:07;98424.03;;;16.15;100.00
71059;BME280;70265;47.576;19.270;2023-07-29T02:51:08;98428.50;;;16.15;100.00
71059;BME280;70265;47.576;19.270;2023-07-29T02:52:12;98428.72;;;16.20;100.00
71059;BME280;70265;47.576;19.270;2023-07-29T02:53:13;98418.53;;;16.17;100.00
71059;BME280;70265;47.576;19.270;2023-07-29T02:54:18;98419.75;;;16.21;100.00
71059;BME280;70265;47.576;19.270;2023-07-29T02:55:22;98431.78;;;16.23;100.00
71059;BME280;70265;47.576;19.270;2023-07-29T02:56:26;98430.97;;;16.23;100.00
71059;BME280;70265;47.576;19.270;2023-07-29T02:57:27;98431.38;;;16.26;100.00
71059;BME280;70265;47.576;19.270;2023-07-29T02:58:40;98427.94;;;16.26;100.00
71059;BME280;70265;47.576;19.270;2023-07-29T02:59:41;98435.47;;;16.29;100.00
71059;BME280;70265;47.576;19.270;2023-07-29T03:00:46;98426.72;;;16.28;100.00
71059;BME280;70265;47.576;19.270;2023-07-29T03:01:49;98431.59;;;16.32;100.00
71059;BME280;70265;47.576;19.270;2023-07-29T03:02:54;98427.53;;;16.29;100.00
71059;BME280;70265;47.576;19.270;2023-07-29T03:03:55;98426.69;;;16.22;100.00
71059;BME280;70265;47.576;19.270;2023-07-29T03:04:59;98423.81;;;16.17;100.00
71059;BME280;70265;47.576;19.270;2023-07-29T03:06:02;98427.28;;;16.17;100.00
71059;BME280;70265;47.576;19.270;2023-07-29T03:07:06;98424.44;;;16.19;100.00
71059;BME280;70265;47.576;19.270;2023-07-29T03:08:07;98423.63;;;16.18;100.00
71059;BME280;70265;47.576;19.270;2023-07-29T03:09:11;98424.25;;;16.20;100.00
71059;BME280;70265;47.576;19.270;2023-07-29T03:10:12;98425.88;;;16.21;100.00
71059;BME280;70265;47.576;19.270;2023-07-29T03:11:16;98429.50;;;16.14;100.00
71059;BME280;70265;47.576;19.270;2023-07-29T03:12:18;98432.78;;;16.16;100.00
71059;BME280;70265;47.576;19.270;2023-07-29T03:13:22;98432.41;;;16.19;100.00
71059;BME280;70265;47.576;19.270;2023-07-29T03:14:26;98434.63;;;16.22;100.00
71059;BME280;70265;47.576;19.270;2023-07-29T03:15:30;98438.53;;;16.26;100.00
71059;BME280;70265;47.576;19.270;2023-07-29T03:16:31;98436.25;;;16.23;100.00
71059;BME280;70265;47.576;19.270;2023-07-29T03:17:35;98430.19;;;16.29;100.00
71059;BME280;70265;47.576;19.270;2023-07-29T03:18:40;98428.16;;;16.31;100.00
71059;BME280;70265;47.576;19.270;2023-07-29T03:19:44;98437.88;;;16.24;100.00
71059;BME280;70265;47.576;19.270;2023-07-29T03:20:45;98434.41;;;16.17;100.00
71059;BME280;70265;47.576;19.270;2023-07-29T03:21:49;98427.69;;;16.14;100.00
71059;BME280;70265;47.576;19.270;2023-07-29T03:22:51;98438.09;;;16.22;100.00
71059;BME280;70265;47.576;19.270;2023-07-29T03:23:55;98426.47;;;16.23;100.00
71059;BME280;70265;47.576;19.270;2023-07-29T03:24:57;98430.97;;;16.23;100.00
71059;BME280;70265;47.576;19.270;2023-07-29T03:26:02;98441.53;;;16.23;100.00
71059;BME280;70265;47.576;19.270;2023-07-29T03:27:05;98440.13;;;16.20;100.00
71059;BME280;70265;47.576;19.270;2023-07-29T03:28:10;98448.69;;;16.22;100.00
71059;BME280;70265;47.576;19.270;2023-07-29T03:29:11;98446.41;;;16.19;100.00
71059;BME280;70265;47.576;19.270;2023-07-29T03:30:28;98447.88;;;16.22;100.00
71059;BME280;70265;47.576;19.270;2023-07-29T03:31:30;98444.59;;;16.20;100.00
71059;BME280;70265;47.576;19.270;2023-07-29T03:32:33;98447.06;;;16.21;100.00
71059;BME280;70265;47.576;19.270;2023-07-29T03:33:35;98445.66;;;16.25;100.00
71059;BME280;70265;47.576;19.270;2023-07-29T03:34:39;98446.47;;;16.26;100.00
71059;BME280;70265;47.576;19.270;2023-07-29T03:35:41;98440.97;;;16.27;100.00
71059;BME280;70265;47.576;19.270;2023-07-29T03:36:45;98441.34;;;16.18;100.00
71059;BME280;70265;47.576;19.270;2023-07-29T03:37:54;98438.69;;;16.18;100.00
71059;BME280;70265;47.576;19.270;2023-07-29T03:38:56;98439.13;;;16.21;100.00
71059;BME280;70265;47.576;19.270;2023-07-29T03:40:01;98439.28;;;16.20;100.00
71059;BME280;70265;47.576;19.270;2023-07-29T03:41:03;98439.53;;;16.25;100.00
71059;BME280;70265;47.576;19.270;2023-07-29T03:42:07;98437.31;;;16.28;100.00
71059;BME280;70265;47.576;19.270;2023-07-29T03:43:08;98438.91;;;16.23;100.00
71059;BME280;70265;47.576;19.270;2023-07-29T03:44:13;98443.38;;;16.16;100.00
71059;BME280;70265;47.576;19.270;2023-07-29T03:45:14;98436.44;;;16.15;100.00
71059;BME280;70265;47.576;19.270;2023-07-29T03:46:39;98442.13;;;16.05;100.00
71059;BME280;70265;47.576;19.270;2023-07-29T03:47:40;98434.34;;;16.04;100.00
71059;BME280;70265;47.576;19.270;2023-07-29T03:48:41;98444.94;;;16.04;100.00
71059;BME280;70265;47.576;19.270;2023-07-29T03:49:45;98443.53;;;16.08;100.00
71059;BME280;70265;47.576;19.270;2023-07-29T03:50:46;98439.69;;;16.10;100.00
71059;BME280;70265;47.576;19.270;2023-07-29T03:51:50;98440.91;;;16.14;100.00
71059;BME280;70265;47.576;19.270;2023-07-29T03:52:52;98433.81;;;16.15;100.00
71059;BME280;70265;47.576;19.270;2023-07-29T03:53:55;98443.38;;;16.16;100.00
71059;BME280;70265;47.576;19.270;2023-07-29T03:54:56;98446.63;;;16.18;100.00
71059;BME280;70265;47.576;19.270;2023-07-29T03:56:00;98446.63;;;16.18;100.00
71059;BME280;70265;47.576;19.270;2023-07-29T03:57:02;98445.00;;;16.17;100.00
71059;BME280;70265;47.576;19.270;2023-07-29T03:58:09;98438.09;;;16.16;100.00
71059;BME280;70265;47.576;19.270;2023-07-29T03:59:10;98442.97;;;16.19;100.00
71059;BME280;70265;47.576;19.270;2023-07-29T04:00:14;98445.84;;;16.24;100.00
71059;BME280;70265;47.576;19.270;2023-07-29T04:01:16;98436.66;;;16.26;100.00
71059;BME280;70265;47.576;19.270;2023-07-29T04:02:22;98444.03;;;16.31;100.00
71059;BME280;70265;47.576;19.270;2023-07-29T04:03:23;98450.31;;;16.30;100.00
71059;BME280;70265;47.576;19.270;2023-07-29T04:04:27;98436.47;;;16.28;100.00
71059;BME280;70265;47.576;19.270;2023-07-29T04:05:28;98441.38;;;16.31;100.00
71059;BME280;70265;47.576;19.270;2023-07-29T04:06:30;98443.03;;;16.32;100.00
71059;BME280;70265;47.576;19.270;2023-07-29T04:07:34;98441.59;;;16.36;100.00
71059;BME280;70265;47.576;19.270;2023-07-29T04:08:36;98442.81;;;16.40;100.00
71059;BME280;70265;47.576;19.270;2023-07-29T04:09:42;98443.06;;;16.45;100.00
71059;BME280;70265;47.576;19.270;2023-07-29T04:10:44;98439.41;;;16.46;100.00
71059;BME280;70265;47.576;19.270;2023-07-29T04:11:48;98434.09;;;16.46;100.00
71059;BME280;70265;47.576;19.270;2023-07-29T04:12:49;98445.53;;;16.53;100.00
71059;BME280;70265;47.576;19.270;2023-07-29T04:13:53;98447.41;;;16.59;100.00
71059;BME280;70265;47.576;19.270;2023-07-29T04:14:54;98442.28;;;16.64;100.00
71059;BME280;70265;47.576;19.270;2023-07-29T04:15:58;98450.88;;;16.66;100.00
71059;BME280;70265;47.576;19.270;2023-07-29T04:17:00;98447.19;;;16.67;100.00
71059;BME280;70265;47.576;19.270;2023-07-29T04:18:07;98448.00;;;16.74;100.00
71059;BME280;70265;47.576;19.270;2023-07-29T04:19:08;98450.88;;;16.79;100.00
71059;BME280;70265;47.576;19.270;2023-07-29T04:21:29;98453.56;;;16.93;100.00
71059;BME280;70265;47.576;19.270;2023-07-29T04:22:33;98446.41;;;17.00;100.00
71059;BME280;70265;47.576;19.270;2023-07-29T04:23:34;98448.66;;;17.09;100.00
71059;BME280;70265;47.576;19.270;2023-07-29T04:24:38;98448.47;;;17.17;100.00
71059;BME280;70265;47.576;19.270;2023-07-29T04:25:39;98450.47;;;17.28;100.00
71059;BME280;70265;47.576;19.270;2023-07-29T04:26:43;98452.94;;;17.30;100.00
71059;BME280;70265;47.576;19.270;2023-07-29T04:27:45;98453.53;;;17.32;100.00
71059;BME280;70265;47.576;19.270;2023-07-29T04:28:49;98450.88;;;17.39;100.00
71059;BME280;70265;47.576;19.270;2023-07-29T04:29:50;98454.97;;;17.41;100.00
71059;BME280;70265;47.576;19.270;2023-07-29T04:30:54;98450.06;;;17.45;100.00
71059;BME280;70265;47.576;19.270;2023-07-29T04:31:56;98451.28;;;17.49;100.00
71059;BME280;70265;47.576;19.270;2023-07-29T04:33:01;98454.31;;;17.52;100.00
71059;BME280;70265;47.576;19.270;2023-07-29T04:34:05;98456.41;;;17.57;100.00
71059;BME280;70265;47.576;19.270;2023-07-29T04:35:10;98458.63;;;17.60;100.00
71059;BME280;70265;47.576;19.270;2023-07-29T04:36:11;98446.63;;;17.57;100.00
71059;BME280;70265;47.576;19.270;2023-07-29T04:37:15;98460.06;;;17.62;100.00
71059;BME280;70265;47.576;19.270;2023-07-29T04:38:16;98454.34;;;17.65;100.00
71059;BME280;70265;47.576;19.270;2023-07-29T04:39:20;98455.34;;;17.71;100.00
71059;BME280;70265;47.576;19.270;2023-07-29T04:40:21;98454.75;;;17.75;100.00
71059;BME280;70265;47.576;19.270;2023-07-29T04:41:26;98455.16;;;17.79;100.00
71059;BME280;70265;47.576;19.270;2023-07-29T04:42:27;98450.25;;;17.83;100.00
71059;BME280;70265;47.576;19.270;2023-07-29T04:43:32;98450.41;;;17.88;100.00
71059;BME280;70265;47.576;19.270;2023-07-29T04:44:34;98457.75;;;17.92;100.00
71059;BME280;70265;47.576;19.270;2023-07-29T04:45:42;98455.66;;;18.01;100.00
71059;BME280;70265;47.576;19.270;2023-07-29T04:46:44;98451.50;;;18.24;100.00
71059;BME280;70265;47.576;19.270;2023-07-29T04:47:48;98444.84;;;18.53;100.00
71059;BME280;70265;47.576;19.270;2023-07-29T04:48:49;98455.19;;;18.61;100.00
71059;BME280;70265;47.576;19.270;2023-07-29T04:49:55;98453.13;;;18.70;100.00
71059;BME280;70265;47.576;19.270;2023-07-29T04:50:57;98454.56;;;18.66;100.00
71059;BME280;70265;47.576;19.270;2023-07-29T04:52:03;98453.47;;;18.80;100.00
71059;BME280;70265;47.576;19.270;2023-07-29T04:53:04;98456.50;;;18.84;100.00
71059;BME280;70265;47.576;19.270;2023-07-29T04:54:08;98449.88;;;18.93;100.00
71059;BME280;70265;47.576;19.270;2023-07-29T04:55:09;98458.81;;;19.05;100.00
71059;BME280;70265;47.576;19.270;2023-07-29T04:56:13;98453.06;;;19.08;100.00
71059;BME280;70265;47.576;19.270;2023-07-29T04:57:14;98452.72;;;18.98;100.00
71059;BME280;70265;47.576;19.270;2023-07-29T04:58:19;98453.56;;;18.98;100.00
71059;BME280;70265;47.576;19.270;2023-07-29T04:59:20;98453.56;;;18.92;100.00
71059;BME280;70265;47.576;19.270;2023-07-29T05:00:24;98450.84;;;18.73;100.00
71059;BME280;70265;47.576;19.270;2023-07-29T05:01:26;98450.06;;;18.66;100.00
71059;BME280;70265;47.576;19.270;2023-07-29T05:02:30;98452.53;;;18.61;100.00
71059;BME280;70265;47.576;19.270;2023-07-29T05:03:31;98460.13;;;18.58;100.00
71059;BME280;70265;47.576;19.270;2023-07-29T05:04:35;98458.13;;;18.53;100.00
71059;BME280;70265;47.576;19.270;2023-07-29T05:05:39;98452.88;;;18.40;100.00
71059;BME280;70265;47.576;19.270;2023-07-29T05:06:42;98460.81;;;18.40;100.00
71059;BME280;70265;47.576;19.270;2023-07-29T05:07:44;98455.28;;;18.42;100.00
71059;BME280;70265;47.576;19.270;2023-07-29T05:08:48;98456.09;;;18.42;100.00
71059;BME280;70265;47.576;19.270;2023-07-29T05:09:49;98456.31;;;18.47;100.00
71059;BME280;70265;47.576;19.270;2023-07-29T05:10:53;98450.59;;;18.50;100.00
71059;BME280;70265;47.576;19.270;2023-07-29T05:11:57;98456.06;;;18.55;100.00
71059;BME280;70265;47.576;19.270;2023-07-29T05:13:01;98449.31;;;18.59;100.00
71059;BME280;70265;47.576;19.270;2023-07-29T05:14:02;98452.78;;;18.60;100.00
71059;BME280;70265;47.576;19.270;2023-07-29T05:15:08;98454.00;;;18.89;100.00
71059;BME280;70265;47.576;19.270;2023-07-29T05:16:11;98449.88;;;18.93;100.00
71059;BME280;70265;47.576;19.270;2023-07-29T05:17:17;98464.25;;;18.85;100.00
71059;BME280;70265;47.576;19.270;2023-07-29T05:18:18;98456.13;;;18.80;100.00
71059;BME280;70265;47.576;19.270;2023-07-29T05:19:22;98451.63;;;18.80;100.00
71059;BME280;70265;47.576;19.270;2023-07-29T05:20:23;98458.34;;;18.83;100.00
71059;BME280;70265;47.576;19.270;2023-07-29T05:21:27;98461.81;;;18.84;100.00
71059;BME280;70265;47.576;19.270;2023-07-29T05:22:31;98458.16;;;18.85;100.00
71059;BME280;70265;47.576;19.270;2023-07-29T05:23:32;98453.84;;;18.84;100.00
71059;BME280;70265;47.576;19.270;2023-07-29T05:24:36;98455.31;;;18.79;100.00
71059;BME280;70265;47.576;19.270;2023-07-29T05:25:37;98460.81;;;18.85;100.00
71059;BME280;70265;47.576;19.270;2023-07-29T05:26:41;98463.03;;;18.88;100.00
71059;BME280;70265;47.576;19.270;2023-07-29T05:27:42;98448.91;;;18.87;100.00
71059;BME280;70265;47.576;19.270;2023-07-29T05:28:46;98462.75;;;18.96;100.00
71059;BME280;70265;47.576;19.270;2023-07-29T05:29:47;98468.25;;;19.01;100.00
71059;BME280;70265;47.576;19.270;2023-07-29T05:30:52;98453.91;;;19.02;100.00
71059;BME280;70265;47.576;19.270;2023-07-29T05:31:53;98457.94;;;19.11;100.00